KHRL/HRL METAR and TAF weather

Enter ICAO airport designator
Station Type Date Time Source
KHRL METAR 2022/07/03 14:10 UTC NOAA

KHRL 031410Z 16015KT 10SM FEW019 FEW023 SCT033 30/24 A2997 RMK AO2 T03000244


Station Type Date Time Source
KHRL Decoded METAR 2022/07/03 14:10 UTC NOAA

RIO GRANDE VALLEY, TX, United States (KHRL) 26-13N 97-39W 10M
Jul 03, 2022 - 10:10 AM EDT / 2022.07.03 1410 UTC
Wind: from the SSE (160 degrees) at 17 MPH (15 KT):0
Visibility: 10 mile(s):0
Sky conditions: partly cloudy
Temperature: 86.0 F (30.0 C)
Heat index: 95.9 F (35.5 C):1
Dew Point: 75.9 F (24.4 C)
Relative Humidity: 72%
Pressure (altimeter): 29.97 in. Hg (1014 hPa)
ob: KHRL 031410Z 16015KT 10SM FEW019 FEW023 SCT033 30/24 A2997 RMK AO2 T03000244
cycle: 14

Station Type Date Time Source
KHRL TAF 2022/07/03 12:28 UTC NOAA

TAF KHRL 031126Z 0312/0412 14007KT P6SM FEW020 SCT250
FM031500 16013G19KT P6SM FEW035 SCT250
FM031800 15017G24KT P6SM SCT050 BKN250
FM040100 13017KT P6SM FEW050 FEW250
FM040400 14010KT P6SM FEW025 SCT250

Example: see airport list